sensor_id;sensor_type;location;lat;lon;timestamp;P1;durP1;ratioP1;P2;durP2;ratioP2
66521;SDS011;53349;53.538;8.584;2024-02-26T00:01:07;14.70;;;6.27;;
66521;SDS011;53349;53.538;8.584;2024-02-26T00:03:32;16.43;;;7.17;;
66521;SDS011;53349;53.538;8.584;2024-02-26T00:05:57;16.63;;;7.17;;
66521;SDS011;53349;53.538;8.584;2024-02-26T00:08:22;16.60;;;6.90;;
66521;SDS011;53349;53.538;8.584;2024-02-26T00:10:48;14.50;;;6.90;;
66521;SDS011;53349;53.538;8.584;2024-02-26T00:13:13;14.67;;;7.00;;
66521;SDS011;53349;53.538;8.584;2024-02-26T00:15:38;16.10;;;7.10;;
66521;SDS011;53349;53.538;8.584;2024-02-26T00:18:03;15.07;;;6.77;;
66521;SDS011;53349;53.538;8.584;2024-02-26T00:20:29;16.03;;;6.83;;
66521;SDS011;53349;53.538;8.584;2024-02-26T00:22:54;15.50;;;6.73;;
66521;SDS011;53349;53.538;8.584;2024-02-26T00:25:19;16.27;;;7.37;;
66521;SDS011;53349;53.538;8.584;2024-02-26T00:27:44;16.33;;;7.40;;
66521;SDS011;53349;53.538;8.584;2024-02-26T00:30:10;16.43;;;6.80;;
66521;SDS011;53349;53.538;8.584;2024-02-26T00:32:35;18.00;;;7.37;;
66521;SDS011;53349;53.538;8.584;2024-02-26T00:35:00;17.00;;;7.45;;
66521;SDS011;53349;53.538;8.584;2024-02-26T00:37:26;15.67;;;6.87;;
66521;SDS011;53349;53.538;8.584;2024-02-26T00:39:52;17.70;;;7.10;;
66521;SDS011;53349;53.538;8.584;2024-02-26T00:42:17;19.03;;;7.70;;
66521;SDS011;53349;53.538;8.584;2024-02-26T00:44:42;18.17;;;7.60;;
66521;SDS011;53349;53.538;8.584;2024-02-26T00:47:07;17.30;;;7.30;;
66521;SDS011;53349;53.538;8.584;2024-02-26T00:49:33;16.83;;;7.60;;
66521;SDS011;53349;53.538;8.584;2024-02-26T00:51:58;15.50;;;7.13;;
66521;SDS011;53349;53.538;8.584;2024-02-26T00:54:23;18.70;;;7.78;;
66521;SDS011;53349;53.538;8.584;2024-02-26T00:56:49;17.47;;;7.30;;
66521;SDS011;53349;53.538;8.584;2024-02-26T00:59:14;19.23;;;8.00;;
66521;SDS011;53349;53.538;8.584;2024-02-26T01:01:39;19.57;;;7.80;;
66521;SDS011;53349;53.538;8.584;2024-02-26T01:04:04;16.23;;;7.63;;
66521;SDS011;53349;53.538;8.584;2024-02-26T01:06:30;18.87;;;7.83;;
66521;SDS011;53349;53.538;8.584;2024-02-26T01:08:55;18.43;;;7.60;;
66521;SDS011;53349;53.538;8.584;2024-02-26T01:11:20;17.73;;;7.87;;
66521;SDS011;53349;53.538;8.584;2024-02-26T01:13:45;19.33;;;7.97;;
66521;SDS011;53349;53.538;8.584;2024-02-26T01:16:11;21.00;;;8.27;;
66521;SDS011;53349;53.538;8.584;2024-02-26T01:18:36;20.73;;;8.83;;
66521;SDS011;53349;53.538;8.584;2024-02-26T01:21:01;17.77;;;7.57;;
66521;SDS011;53349;53.538;8.584;2024-02-26T01:23:26;22.47;;;8.73;;
66521;SDS011;53349;53.538;8.584;2024-02-26T01:25:51;20.60;;;8.30;;
66521;SDS011;53349;53.538;8.584;2024-02-26T01:28:17;17.23;;;7.20;;
66521;SDS011;53349;53.538;8.584;2024-02-26T01:30:42;19.53;;;7.67;;
66521;SDS011;53349;53.538;8.584;2024-02-26T01:33:07;19.10;;;7.90;;
66521;SDS011;53349;53.538;8.584;2024-02-26T01:35:33;19.00;;;8.20;;
66521;SDS011;53349;53.538;8.584;2024-02-26T01:37:58;16.93;;;7.63;;
66521;SDS011;53349;53.538;8.584;2024-02-26T01:40:26;21.35;;;7.75;;
66521;SDS011;53349;53.538;8.584;2024-02-26T01:42:52;19.20;;;8.27;;
66521;SDS011;53349;53.538;8.584;2024-02-26T01:45:17;20.15;;;7.80;;
66521;SDS011;53349;53.538;8.584;2024-02-26T01:47:42;20.53;;;7.80;;
66521;SDS011;53349;53.538;8.584;2024-02-26T01:50:08;19.37;;;7.60;;
66521;SDS011;53349;53.538;8.584;2024-02-26T01:52:33;18.45;;;7.57;;
66521;SDS011;53349;53.538;8.584;2024-02-26T01:54:59;19.17;;;7.77;;
66521;SDS011;53349;53.538;8.584;2024-02-26T01:57:24;16.27;;;7.27;;
66521;SDS011;53349;53.538;8.584;2024-02-26T01:59:49;20.07;;;7.33;;
66521;SDS011;53349;53.538;8.584;2024-02-26T02:02:15;21.77;;;8.07;;
66521;SDS011;53349;53.538;8.584;2024-02-26T02:04:40;18.90;;;7.53;;
66521;SDS011;53349;53.538;8.584;2024-02-26T02:07:05;18.20;;;7.07;;
66521;SDS011;53349;53.538;8.584;2024-02-26T02:09:30;16.67;;;7.30;;
66521;SDS011;53349;53.538;8.584;2024-02-26T02:11:56;17.17;;;7.33;;
66521;SDS011;53349;53.538;8.584;2024-02-26T02:14:21;18.35;;;7.43;;
66521;SDS011;53349;53.538;8.584;2024-02-26T02:16:47;14.52;;;6.40;;
66521;SDS011;53349;53.538;8.584;2024-02-26T02:19:13;18.43;;;6.80;;
66521;SDS011;53349;53.538;8.584;2024-02-26T02:21:38;17.92;;;6.78;;
66521;SDS011;53349;53.538;8.584;2024-02-26T02:24:03;15.53;;;6.47;;
66521;SDS011;53349;53.538;8.584;2024-02-26T02:26:29;14.23;;;6.17;;
66521;SDS011;53349;53.538;8.584;2024-02-26T02:28:54;14.43;;;6.07;;
66521;SDS011;53349;53.538;8.584;2024-02-26T02:31:19;14.93;;;6.67;;
66521;SDS011;53349;53.538;8.584;2024-02-26T02:33:45;15.10;;;6.03;;
66521;SDS011;53349;53.538;8.584;2024-02-26T02:36:10;15.23;;;5.97;;
66521;SDS011;53349;53.538;8.584;2024-02-26T02:38:41;15.70;;;6.23;;
66521;SDS011;53349;53.538;8.584;2024-02-26T02:41:13;14.13;;;5.82;;
66521;SDS011;53349;53.538;8.584;2024-02-26T02:43:38;13.67;;;5.73;;
66521;SDS011;53349;53.538;8.584;2024-02-26T02:46:03;13.80;;;5.87;;
66521;SDS011;53349;53.538;8.584;2024-02-26T02:48:29;13.57;;;6.07;;
66521;SDS011;53349;53.538;8.584;2024-02-26T02:50:54;14.35;;;5.55;;
66521;SDS011;53349;53.538;8.584;2024-02-26T02:53:19;10.65;;;5.30;;
66521;SDS011;53349;53.538;8.584;2024-02-26T02:55:44;12.17;;;4.97;;
66521;SDS011;53349;53.538;8.584;2024-02-26T02:58:10;10.77;;;4.63;;
66521;SDS011;53349;53.538;8.584;2024-02-26T03:00:35;12.13;;;5.00;;
66521;SDS011;53349;53.538;8.584;2024-02-26T03:03:01;10.13;;;4.73;;
66521;SDS011;53349;53.538;8.584;2024-02-26T03:05:26;11.17;;;4.70;;
66521;SDS011;53349;53.538;8.584;2024-02-26T03:07:51;10.93;;;4.73;;
66521;SDS011;53349;53.538;8.584;2024-02-26T03:10:16;10.57;;;4.37;;
66521;SDS011;53349;53.538;8.584;2024-02-26T03:12:42;10.33;;;4.60;;
66521;SDS011;53349;53.538;8.584;2024-02-26T03:15:07;9.90;;;4.30;;
66521;SDS011;53349;53.538;8.584;2024-02-26T03:17:33;9.10;;;4.30;;
66521;SDS011;53349;53.538;8.584;2024-02-26T03:19:58;10.00;;;3.97;;
66521;SDS011;53349;53.538;8.584;2024-02-26T03:22:23;10.47;;;4.30;;
66521;SDS011;53349;53.538;8.584;2024-02-26T03:24:48;8.60;;;4.10;;
66521;SDS011;53349;53.538;8.584;2024-02-26T03:27:14;9.17;;;4.33;;
66521;SDS011;53349;53.538;8.584;2024-02-26T03:29:39;8.27;;;3.43;;
66521;SDS011;53349;53.538;8.584;2024-02-26T03:32:04;9.30;;;4.03;;
66521;SDS011;53349;53.538;8.584;2024-02-26T03:34:30;7.93;;;3.60;;
66521;SDS011;53349;53.538;8.584;2024-02-26T03:36:55;9.10;;;4.03;;
66521;SDS011;53349;53.538;8.584;2024-02-26T03:39:20;10.20;;;3.83;;
66521;SDS011;53349;53.538;8.584;2024-02-26T03:41:45;9.40;;;3.93;;
66521;SDS011;53349;53.538;8.584;2024-02-26T03:44:11;8.87;;;4.00;;
66521;SDS011;53349;53.538;8.584;2024-02-26T03:46:36;8.03;;;3.67;;
66521;SDS011;53349;53.538;8.584;2024-02-26T03:49:01;10.05;;;3.67;;
66521;SDS011;53349;53.538;8.584;2024-02-26T03:51:27;7.97;;;3.87;;
66521;SDS011;53349;53.538;8.584;2024-02-26T03:53:52;9.37;;;4.00;;
66521;SDS011;53349;53.538;8.584;2024-02-26T03:56:17;9.97;;;3.87;;
66521;SDS011;53349;53.538;8.584;2024-02-26T03:58:43;10.27;;;3.87;;
66521;SDS011;53349;53.538;8.584;2024-02-26T04:01:08;9.67;;;4.03;;
66521;SDS011;53349;53.538;8.584;2024-02-26T04:03:33;9.03;;;4.17;;
66521;SDS011;53349;53.538;8.584;2024-02-26T04:05:59;8.60;;;4.27;;
66521;SDS011;53349;53.538;8.584;2024-02-26T04:08:24;10.23;;;4.30;;
66521;SDS011;53349;53.538;8.584;2024-02-26T04:10:49;9.97;;;4.30;;
66521;SDS011;53349;53.538;8.584;2024-02-26T04:13:14;9.57;;;4.37;;
66521;SDS011;53349;53.538;8.584;2024-02-26T04:15:40;11.13;;;4.80;;
66521;SDS011;53349;53.538;8.584;2024-02-26T04:18:05;9.40;;;4.63;;
66521;SDS011;53349;53.538;8.584;2024-02-26T04:20:30;10.87;;;5.03;;
66521;SDS011;53349;53.538;8.584;2024-02-26T04:22:55;10.73;;;4.80;;
66521;SDS011;53349;53.538;8.584;2024-02-26T04:25:21;10.13;;;4.57;;
66521;SDS011;53349;53.538;8.584;2024-02-26T04:27:46;10.03;;;4.57;;
66521;SDS011;53349;53.538;8.584;2024-02-26T04:30:11;9.73;;;4.37;;
66521;SDS011;53349;53.538;8.584;2024-02-26T04:32:36;10.15;;;4.60;;
66521;SDS011;53349;53.538;8.584;2024-02-26T04:35:02;10.73;;;4.60;;
66521;SDS011;53349;53.538;8.584;2024-02-26T04:37:27;10.73;;;5.03;;
66521;SDS011;53349;53.538;8.584;2024-02-26T04:39:53;10.17;;;4.70;;
66521;SDS011;53349;53.538;8.584;2024-02-26T04:42:18;11.27;;;4.77;;
66521;SDS011;53349;53.538;8.584;2024-02-26T04:44:43;11.07;;;4.77;;
66521;SDS011;53349;53.538;8.584;2024-02-26T04:47:08;14.03;;;4.83;;
66521;SDS011;53349;53.538;8.584;2024-02-26T04:49:34;8.80;;;4.40;;
66521;SDS011;53349;53.538;8.584;2024-02-26T04:51:59;10.43;;;4.73;;
66521;SDS011;53349;53.538;8.584;2024-02-26T04:54:24;9.50;;;4.80;;
66521;SDS011;53349;53.538;8.584;2024-02-26T04:56:49;10.83;;;4.73;;
66521;SDS011;53349;53.538;8.584;2024-02-26T04:59:14;9.33;;;4.40;;
66521;SDS011;53349;53.538;8.584;2024-02-26T05:01:40;11.63;;;4.87;;
66521;SDS011;53349;53.538;8.584;2024-02-26T05:04:07;12.20;;;4.95;;
66521;SDS011;53349;53.538;8.584;2024-02-26T05:06:32;9.33;;;4.50;;
66521;SDS011;53349;53.538;8.584;2024-02-26T05:08:57;11.80;;;4.80;;
66521;SDS011;53349;53.538;8.584;2024-02-26T05:11:22;11.23;;;4.80;;
66521;SDS011;53349;53.538;8.584;2024-02-26T05:13:48;9.87;;;4.60;;
66521;SDS011;53349;53.538;8.584;2024-02-26T05:16:13;10.27;;;4.53;;
66521;SDS011;53349;53.538;8.584;2024-02-26T05:18:38;10.87;;;4.67;;
66521;SDS011;53349;53.538;8.584;2024-02-26T05:21:03;12.17;;;4.50;;
66521;SDS011;53349;53.538;8.584;2024-02-26T05:23:29;11.60;;;4.60;;
66521;SDS011;53349;53.538;8.584;2024-02-26T05:25:54;9.83;;;4.17;;
66521;SDS011;53349;53.538;8.584;2024-02-26T05:28:19;9.50;;;4.20;;
66521;SDS011;53349;53.538;8.584;2024-02-26T05:30:44;9.03;;;4.10;;
66521;SDS011;53349;53.538;8.584;2024-02-26T05:33:10;10.20;;;3.93;;
66521;SDS011;53349;53.538;8.584;2024-02-26T05:35:35;8.95;;;4.45;;
66521;SDS011;53349;53.538;8.584;2024-02-26T05:38:00;9.07;;;4.13;;
66521;SDS011;53349;53.538;8.584;2024-02-26T05:40:25;11.23;;;4.10;;
66521;SDS011;53349;53.538;8.584;2024-02-26T05:42:51;7.77;;;3.57;;
66521;SDS011;53349;53.538;8.584;2024-02-26T05:45:16;11.20;;;4.20;;
66521;SDS011;53349;53.538;8.584;2024-02-26T05:47:41;8.32;;;3.75;;
66521;SDS011;53349;53.538;8.584;2024-02-26T05:50:06;9.70;;;4.20;;
66521;SDS011;53349;53.538;8.584;2024-02-26T05:52:32;9.30;;;4.00;;
66521;SDS011;53349;53.538;8.584;2024-02-26T05:54:57;8.23;;;4.00;;
66521;SDS011;53349;53.538;8.584;2024-02-26T05:57:22;8.90;;;3.97;;
66521;SDS011;53349;53.538;8.584;2024-02-26T05:59:47;7.83;;;3.87;;
66521;SDS011;53349;53.538;8.584;2024-02-26T06:02:13;9.03;;;4.13;;
66521;SDS011;53349;53.538;8.584;2024-02-26T06:04:38;8.80;;;3.50;;
66521;SDS011;53349;53.538;8.584;2024-02-26T06:07:03;9.47;;;3.90;;
66521;SDS011;53349;53.538;8.584;2024-02-26T06:09:28;9.03;;;4.10;;
66521;SDS011;53349;53.538;8.584;2024-02-26T06:11:54;8.97;;;4.20;;
66521;SDS011;53349;53.538;8.584;2024-02-26T06:14:19;9.37;;;3.70;;
66521;SDS011;53349;53.538;8.584;2024-02-26T06:16:44;10.50;;;4.25;;
66521;SDS011;53349;53.538;8.584;2024-02-26T06:19:10;8.67;;;3.70;;
66521;SDS011;53349;53.538;8.584;2024-02-26T06:21:35;9.65;;;3.85;;
66521;SDS011;53349;53.538;8.584;2024-02-26T06:24:01;8.63;;;3.53;;
66521;SDS011;53349;53.538;8.584;2024-02-26T06:26:26;9.10;;;3.97;;
66521;SDS011;53349;53.538;8.584;2024-02-26T06:28:54;11.67;;;3.77;;
66521;SDS011;53349;53.538;8.584;2024-02-26T06:31:20;8.90;;;3.88;;
66521;SDS011;53349;53.538;8.584;2024-02-26T06:33:45;9.07;;;4.03;;
66521;SDS011;53349;53.538;8.584;2024-02-26T06:36:10;8.03;;;3.83;;
66521;SDS011;53349;53.538;8.584;2024-02-26T06:38:35;9.57;;;4.10;;
66521;SDS011;53349;53.538;8.584;2024-02-26T06:41:00;8.63;;;3.70;;
66521;SDS011;53349;53.538;8.584;2024-02-26T06:43:26;10.50;;;3.87;;
66521;SDS011;53349;53.538;8.584;2024-02-26T06:45:51;9.00;;;3.67;;
66521;SDS011;53349;53.538;8.584;2024-02-26T06:48:16;9.80;;;4.40;;
66521;SDS011;53349;53.538;8.584;2024-02-26T06:50:42;8.53;;;3.83;;
66521;SDS011;53349;53.538;8.584;2024-02-26T06:53:07;8.37;;;4.23;;
66521;SDS011;53349;53.538;8.584;2024-02-26T06:55:32;7.63;;;3.87;;
66521;SDS011;53349;53.538;8.584;2024-02-26T06:57:57;9.37;;;4.27;;
66521;SDS011;53349;53.538;8.584;2024-02-26T07:00:23;7.77;;;3.67;;
66521;SDS011;53349;53.538;8.584;2024-02-26T07:02:48;8.73;;;3.63;;
66521;SDS011;53349;53.538;8.584;2024-02-26T07:05:13;8.60;;;3.70;;
66521;SDS011;53349;53.538;8.584;2024-02-26T07:07:39;8.88;;;3.95;;
66521;SDS011;53349;53.538;8.584;2024-02-26T07:10:04;8.00;;;3.50;;
66521;SDS011;53349;53.538;8.584;2024-02-26T07:12:30;8.50;;;3.60;;
66521;SDS011;53349;53.538;8.584;2024-02-26T07:14:55;9.02;;;3.83;;
66521;SDS011;53349;53.538;8.584;2024-02-26T07:17:21;9.13;;;3.43;;
66521;SDS011;53349;53.538;8.584;2024-02-26T07:19:46;9.73;;;4.20;;
66521;SDS011;53349;53.538;8.584;2024-02-26T07:22:11;9.30;;;3.87;;
66521;SDS011;53349;53.538;8.584;2024-02-26T07:24:36;7.67;;;3.63;;
66521;SDS011;53349;53.538;8.584;2024-02-26T07:27:02;8.47;;;3.87;;
66521;SDS011;53349;53.538;8.584;2024-02-26T07:29:27;9.40;;;4.23;;
66521;SDS011;53349;53.538;8.584;2024-02-26T07:31:52;11.37;;;4.20;;
66521;SDS011;53349;53.538;8.584;2024-02-26T07:34:18;8.73;;;3.90;;
66521;SDS011;53349;53.538;8.584;2024-02-26T07:36:43;8.67;;;4.13;;
66521;SDS011;53349;53.538;8.584;2024-02-26T07:39:08;9.97;;;3.47;;
66521;SDS011;53349;53.538;8.584;2024-02-26T07:41:33;9.67;;;4.13;;
66521;SDS011;53349;53.538;8.584;2024-02-26T07:43:58;8.33;;;4.33;;
66521;SDS011;53349;53.538;8.584;2024-02-26T07:46:24;10.17;;;4.33;;
66521;SDS011;53349;53.538;8.584;2024-02-26T07:48:49;8.80;;;4.17;;
66521;SDS011;53349;53.538;8.584;2024-02-26T07:51:14;9.17;;;4.07;;
66521;SDS011;53349;53.538;8.584;2024-02-26T07:53:40;10.27;;;4.30;;
66521;SDS011;53349;53.538;8.584;2024-02-26T07:56:05;7.03;;;3.50;;
66521;SDS011;53349;53.538;8.584;2024-02-26T07:58:31;8.17;;;3.77;;
66521;SDS011;53349;53.538;8.584;2024-02-26T08:00:57;9.57;;;4.43;;
66521;SDS011;53349;53.538;8.584;2024-02-26T08:03:22;9.63;;;4.33;;
66521;SDS011;53349;53.538;8.584;2024-02-26T08:05:47;10.33;;;4.07;;
66521;SDS011;53349;53.538;8.584;2024-02-26T08:08:13;8.97;;;3.63;;
66521;SDS011;53349;53.538;8.584;2024-02-26T08:10:38;8.70;;;4.03;;
66521;SDS011;53349;53.538;8.584;2024-02-26T08:13:03;7.53;;;3.43;;
66521;SDS011;53349;53.538;8.584;2024-02-26T08:15:28;9.23;;;4.20;;
66521;SDS011;53349;53.538;8.584;2024-02-26T08:17:54;8.73;;;3.83;;
66521;SDS011;53349;53.538;8.584;2024-02-26T08:20:19;8.13;;;3.90;;
66521;SDS011;53349;53.538;8.584;2024-02-26T08:22:44;8.37;;;4.03;;
66521;SDS011;53349;53.538;8.584;2024-02-26T08:25:09;9.20;;;4.00;;
66521;SDS011;53349;53.538;8.584;2024-02-26T08:27:35;9.63;;;4.50;;
66521;SDS011;53349;53.538;8.584;2024-02-26T08:30:00;8.13;;;3.92;;
66521;SDS011;53349;53.538;8.584;2024-02-26T08:32:25;10.17;;;4.03;;
66521;SDS011;53349;53.538;8.584;2024-02-26T08:34:51;9.07;;;3.97;;
66521;SDS011;53349;53.538;8.584;2024-02-26T08:37:16;8.03;;;4.13;;
66521;SDS011;53349;53.538;8.584;2024-02-26T08:39:41;8.00;;;3.70;;
66521;SDS011;53349;53.538;8.584;2024-02-26T08:42:06;8.93;;;3.77;;
66521;SDS011;53349;53.538;8.584;2024-02-26T08:44:32;8.27;;;3.83;;
66521;SDS011;53349;53.538;8.584;2024-02-26T08:46:57;7.40;;;3.57;;
66521;SDS011;53349;53.538;8.584;2024-02-26T08:49:22;9.70;;;3.97;;
66521;SDS011;53349;53.538;8.584;2024-02-26T08:51:47;11.90;;;4.17;;
66521;SDS011;53349;53.538;8.584;2024-02-26T08:54:13;9.63;;;4.23;;
66521;SDS011;53349;53.538;8.584;2024-02-26T08:56:38;9.07;;;4.10;;
66521;SDS011;53349;53.538;8.584;2024-02-26T08:59:03;9.80;;;4.33;;
66521;SDS011;53349;53.538;8.584;2024-02-26T09:01:29;9.27;;;4.13;;
66521;SDS011;53349;53.538;8.584;2024-02-26T09:03:54;9.97;;;4.27;;
66521;SDS011;53349;53.538;8.584;2024-02-26T09:06:19;8.77;;;3.83;;
66521;SDS011;53349;53.538;8.584;2024-02-26T09:08:44;8.63;;;3.77;;
66521;SDS011;53349;53.538;8.584;2024-02-26T09:11:10;8.70;;;4.00;;
66521;SDS011;53349;53.538;8.584;2024-02-26T09:13:35;8.63;;;3.80;;
66521;SDS011;53349;53.538;8.584;2024-02-26T09:16:00;9.73;;;4.20;;
66521;SDS011;53349;53.538;8.584;2024-02-26T09:18:26;9.90;;;4.55;;
66521;SDS011;53349;53.538;8.584;2024-02-26T09:20:51;9.25;;;4.18;;
66521;SDS011;53349;53.538;8.584;2024-02-26T09:23:16;8.30;;;4.22;;
66521;SDS011;53349;53.538;8.584;2024-02-26T09:25:41;8.98;;;4.13;;
66521;SDS011;53349;53.538;8.584;2024-02-26T09:28:07;10.13;;;4.20;;
66521;SDS011;53349;53.538;8.584;2024-02-26T09:30:32;10.30;;;4.47;;
66521;SDS011;53349;53.538;8.584;2024-02-26T09:32:57;10.20;;;4.67;;
66521;SDS011;53349;53.538;8.584;2024-02-26T09:35:22;10.00;;;4.37;;
66521;SDS011;53349;53.538;8.584;2024-02-26T09:37:48;10.00;;;4.40;;
66521;SDS011;53349;53.538;8.584;2024-02-26T09:40:13;9.03;;;4.47;;
66521;SDS011;53349;53.538;8.584;2024-02-26T09:42:41;10.97;;;4.30;;
66521;SDS011;53349;53.538;8.584;2024-02-26T09:45:07;9.57;;;4.07;;
66521;SDS011;53349;53.538;8.584;2024-02-26T09:47:35;10.85;;;4.57;;
66521;SDS011;53349;53.538;8.584;2024-02-26T09:50:01;10.20;;;4.38;;
66521;SDS011;53349;53.538;8.584;2024-02-26T09:52:27;9.50;;;4.13;;
66521;SDS011;53349;53.538;8.584;2024-02-26T09:54:53;9.27;;;4.23;;
66521;SDS011;53349;53.538;8.584;2024-02-26T09:57:18;10.63;;;4.60;;
66521;SDS011;53349;53.538;8.584;2024-02-26T09:59:43;10.38;;;4.50;;
66521;SDS011;53349;53.538;8.584;2024-02-26T10:02:11;12.00;;;4.60;;
66521;SDS011;53349;53.538;8.584;2024-02-26T10:04:36;10.03;;;4.93;;
66521;SDS011;53349;53.538;8.584;2024-02-26T10:07:03;8.93;;;4.20;;
66521;SDS011;53349;53.538;8.584;2024-02-26T10:09:29;10.30;;;4.35;;
66521;SDS011;53349;53.538;8.584;2024-02-26T10:11:54;11.07;;;4.63;;
66521;SDS011;53349;53.538;8.584;2024-02-26T10:14:19;12.10;;;4.55;;
66521;SDS011;53349;53.538;8.584;2024-02-26T10:16:45;10.20;;;4.57;;
66521;SDS011;53349;53.538;8.584;2024-02-26T10:19:10;11.48;;;5.05;;
66521;SDS011;53349;53.538;8.584;2024-02-26T10:21:49;11.60;;;4.60;;
66521;SDS011;53349;53.538;8.584;2024-02-26T10:24:14;12.60;;;5.00;;
66521;SDS011;53349;53.538;8.584;2024-02-26T10:26:45;11.37;;;4.73;;
66521;SDS011;53349;53.538;8.584;2024-02-26T10:29:10;11.27;;;4.95;;
66521;SDS011;53349;53.538;8.584;2024-02-26T10:31:35;11.47;;;4.60;;
66521;SDS011;53349;53.538;8.584;2024-02-26T10:34:01;11.77;;;4.90;;
66521;SDS011;53349;53.538;8.584;2024-02-26T10:36:26;12.60;;;4.97;;
66521;SDS011;53349;53.538;8.584;2024-02-26T10:38:51;10.60;;;4.90;;
66521;SDS011;53349;53.538;8.584;2024-02-26T10:41:16;11.97;;;4.60;;
66521;SDS011;53349;53.538;8.584;2024-02-26T10:43:42;11.03;;;4.90;;
66521;SDS011;53349;53.538;8.584;2024-02-26T10:46:07;11.20;;;4.55;;
66521;SDS011;53349;53.538;8.584;2024-02-26T10:48:33;9.83;;;4.20;;
66521;SDS011;53349;53.538;8.584;2024-02-26T10:50:58;11.03;;;4.40;;
66521;SDS011;53349;53.538;8.584;2024-02-26T10:53:25;11.83;;;4.70;;
66521;SDS011;53349;53.538;8.584;2024-02-26T10:56:01;11.68;;;5.07;;
66521;SDS011;53349;53.538;8.584;2024-02-26T10:58:26;10.87;;;4.67;;
66521;SDS011;53349;53.538;8.584;2024-02-26T11:00:52;9.65;;;4.78;;
66521;SDS011;53349;53.538;8.584;2024-02-26T11:03:17;11.37;;;4.70;;
66521;SDS011;53349;53.538;8.584;2024-02-26T11:05:43;10.07;;;4.67;;
66521;SDS011;53349;53.538;8.584;2024-02-26T11:08:09;11.05;;;5.00;;
66521;SDS011;53349;53.538;8.584;2024-02-26T11:10:35;11.52;;;4.43;;
66521;SDS011;53349;53.538;8.584;2024-02-26T11:13:01;11.27;;;4.80;;
66521;SDS011;53349;53.538;8.584;2024-02-26T11:15:28;11.60;;;4.80;;
66521;SDS011;53349;53.538;8.584;2024-02-26T11:17:54;10.30;;;4.57;;
66521;SDS011;53349;53.538;8.584;2024-02-26T11:20:20;12.07;;;5.30;;
66521;SDS011;53349;53.538;8.584;2024-02-26T11:22:46;11.07;;;5.10;;
66521;SDS011;53349;53.538;8.584;2024-02-26T11:25:11;11.70;;;5.07;;
66521;SDS011;53349;53.538;8.584;2024-02-26T11:27:41;11.15;;;5.15;;
66521;SDS011;53349;53.538;8.584;2024-02-26T11:30:10;12.05;;;5.43;;
66521;SDS011;53349;53.538;8.584;2024-02-26T11:32:36;10.57;;;5.40;;
66521;SDS011;53349;53.538;8.584;2024-02-26T11:35:02;11.23;;;5.22;;
66521;SDS011;53349;53.538;8.584;2024-02-26T11:37:29;10.37;;;4.80;;
66521;SDS011;53349;53.538;8.584;2024-02-26T11:39:54;10.03;;;5.00;;
66521;SDS011;53349;53.538;8.584;2024-02-26T11:42:23;10.73;;;4.70;;
66521;SDS011;53349;53.538;8.584;2024-02-26T11:44:49;11.40;;;4.55;;
66521;SDS011;53349;53.538;8.584;2024-02-26T11:47:21;11.00;;;4.87;;
66521;SDS011;53349;53.538;8.584;2024-02-26T11:49:47;10.77;;;4.43;;
66521;SDS011;53349;53.538;8.584;2024-02-26T11:52:13;10.68;;;4.75;;
66521;SDS011;53349;53.538;8.584;2024-02-26T11:57:03;9.47;;;4.30;;
66521;SDS011;53349;53.538;8.584;2024-02-26T11:59:38;8.53;;;4.47;;
66521;SDS011;53349;53.538;8.584;2024-02-26T12:02:03;10.40;;;4.67;;
66521;SDS011;53349;53.538;8.584;2024-02-26T12:04:29;9.02;;;4.50;;
66521;SDS011;53349;53.538;8.584;2024-02-26T12:06:56;10.00;;;4.93;;
66521;SDS011;53349;53.538;8.584;2024-02-26T12:09:37;11.20;;;5.03;;
66521;SDS011;53349;53.538;8.584;2024-02-26T12:12:03;9.95;;;4.50;;
66521;SDS011;53349;53.538;8.584;2024-02-26T12:14:29;9.57;;;4.50;;
66521;SDS011;53349;53.538;8.584;2024-02-26T12:16:55;11.70;;;4.50;;
66521;SDS011;53349;53.538;8.584;2024-02-26T12:19:20;11.65;;;5.22;;
66521;SDS011;53349;53.538;8.584;2024-02-26T12:21:46;9.23;;;4.72;;
66521;SDS011;53349;53.538;8.584;2024-02-26T12:24:15;8.77;;;4.55;;
66521;SDS011;53349;53.538;8.584;2024-02-26T12:26:43;9.75;;;4.40;;
66521;SDS011;53349;53.538;8.584;2024-02-26T12:29:08;11.43;;;4.77;;
66521;SDS011;53349;53.538;8.584;2024-02-26T12:31:33;11.67;;;4.77;;
66521;SDS011;53349;53.538;8.584;2024-02-26T12:34:02;12.17;;;5.07;;
66521;SDS011;53349;53.538;8.584;2024-02-26T12:36:27;12.57;;;5.15;;
66521;SDS011;53349;53.538;8.584;2024-02-26T12:38:52;10.13;;;5.00;;
66521;SDS011;53349;53.538;8.584;2024-02-26T12:41:18;11.93;;;5.00;;
66521;SDS011;53349;53.538;8.584;2024-02-26T12:43:44;12.95;;;5.50;;
66521;SDS011;53349;53.538;8.584;2024-02-26T12:46:12;11.53;;;4.80;;
66521;SDS011;53349;53.538;8.584;2024-02-26T12:48:37;11.00;;;5.03;;
66521;SDS011;53349;53.538;8.584;2024-02-26T12:51:02;12.07;;;4.93;;
66521;SDS011;53349;53.538;8.584;2024-02-26T12:53:28;12.10;;;5.00;;
66521;SDS011;53349;53.538;8.584;2024-02-26T12:55:56;12.57;;;5.10;;
66521;SDS011;53349;53.538;8.584;2024-02-26T12:58:22;12.23;;;5.22;;
66521;SDS011;53349;53.538;8.584;2024-02-26T13:00:47;12.17;;;5.10;;
66521;SDS011;53349;53.538;8.584;2024-02-26T13:03:13;12.53;;;5.23;;
66521;SDS011;53349;53.538;8.584;2024-02-26T13:05:38;11.50;;;5.40;;
66521;SDS011;53349;53.538;8.584;2024-02-26T13:08:04;13.85;;;5.13;;
66521;SDS011;53349;53.538;8.584;2024-02-26T13:10:31;11.27;;;4.82;;
66521;SDS011;53349;53.538;8.584;2024-02-26T13:12:56;11.27;;;5.17;;
66521;SDS011;53349;53.538;8.584;2024-02-26T13:15:22;13.43;;;5.78;;
66521;SDS011;53349;53.538;8.584;2024-02-26T13:17:48;13.70;;;5.40;;
66521;SDS011;53349;53.538;8.584;2024-02-26T13:20:25;13.43;;;5.35;;
66521;SDS011;53349;53.538;8.584;2024-02-26T13:22:50;13.07;;;5.65;;
66521;SDS011;53349;53.538;8.584;2024-02-26T13:25:20;14.33;;;6.00;;
66521;SDS011;53349;53.538;8.584;2024-02-26T13:27:45;12.18;;;5.47;;
66521;SDS011;53349;53.538;8.584;2024-02-26T13:30:11;12.00;;;5.57;;
66521;SDS011;53349;53.538;8.584;2024-02-26T13:32:37;11.95;;;5.20;;
66521;SDS011;53349;53.538;8.584;2024-02-26T13:37:31;12.13;;;5.68;;
66521;SDS011;53349;53.538;8.584;2024-02-26T13:39:56;14.47;;;5.73;;
66521;SDS011;53349;53.538;8.584;2024-02-26T13:42:21;14.70;;;5.77;;
66521;SDS011;53349;53.538;8.584;2024-02-26T13:44:46;14.57;;;6.00;;
66521;SDS011;53349;53.538;8.584;2024-02-26T13:47:12;12.57;;;5.67;;
66521;SDS011;53349;53.538;8.584;2024-02-26T13:49:37;12.43;;;5.13;;
66521;SDS011;53349;53.538;8.584;2024-02-26T13:52:02;12.23;;;5.37;;
66521;SDS011;53349;53.538;8.584;2024-02-26T13:54:27;12.87;;;5.30;;
66521;SDS011;53349;53.538;8.584;2024-02-26T13:56:53;14.27;;;6.13;;
66521;SDS011;53349;53.538;8.584;2024-02-26T13:59:18;10.90;;;5.10;;
66521;SDS011;53349;53.538;8.584;2024-02-26T14:01:43;15.43;;;6.47;;
66521;SDS011;53349;53.538;8.584;2024-02-26T14:04:09;12.50;;;5.43;;
66521;SDS011;53349;53.538;8.584;2024-02-26T14:06:34;14.10;;;5.87;;
66521;SDS011;53349;53.538;8.584;2024-02-26T14:08:59;14.53;;;5.57;;
66521;SDS011;53349;53.538;8.584;2024-02-26T14:11:24;11.30;;;5.13;;
66521;SDS011;53349;53.538;8.584;2024-02-26T14:13:50;13.70;;;5.80;;
66521;SDS011;53349;53.538;8.584;2024-02-26T14:16:15;13.73;;;6.10;;
66521;SDS011;53349;53.538;8.584;2024-02-26T14:18:40;12.83;;;5.83;;
66521;SDS011;53349;53.538;8.584;2024-02-26T14:21:05;14.10;;;5.83;;
66521;SDS011;53349;53.538;8.584;2024-02-26T14:23:31;11.73;;;5.23;;
66521;SDS011;53349;53.538;8.584;2024-02-26T14:25:56;15.07;;;6.53;;
66521;SDS011;53349;53.538;8.584;2024-02-26T14:28:21;13.90;;;6.43;;
66521;SDS011;53349;53.538;8.584;2024-02-26T14:30:46;16.00;;;6.70;;
66521;SDS011;53349;53.538;8.584;2024-02-26T14:33:11;13.03;;;5.97;;